UPS420 KRDU-KLAS
Flight info
| Callsign | UPS420 |
|---|---|
| Flight time | N/A |
| Altitude | 30000 |
| Route | SHPRD4 SHPRD COMDY METWO BNA BETIE TWITS/N0476F320 TUL CIM/N0463F340 DICEE TYEGR CHOWW4 |
| Aircraft | B738/M-SDE2E3FGHIRWXY/LB1 |
Departure
| Time | 2026-05-07 01:17 |
|---|---|
| Airport | Raleigh-Durham International Airport (KRDU) |
Arrival
| Time | N/A |
|---|---|
| Airport | Harry Reid International Airport (KLAS) |
| Time | Latitude | Longitude | Altitude | Speed | Heading |
|---|---|---|---|---|---|
| 2026-05-07 00:46 | 35.88871 | -78.77858 | 407 ft | 0 kts | 157° |
| 2026-05-07 01:00 | 35.88873 | -78.77859 | 405 ft | 0 kts | 157° |
| 2026-05-07 01:01 | 35.88888 | -78.77866 | 403 ft | 2 kts | 180° |
| 2026-05-07 01:01 | 35.88898 | -78.77861 | 405 ft | 2 kts | 248° |
| 2026-05-07 01:01 | 35.88902 | -78.77848 | 404 ft | 2 kts | 251° |
| 2026-05-07 01:01 | 35.88902 | -78.77846 | 403 ft | 0 kts | 251° |
| 2026-05-07 01:02 | 35.88901 | -78.77849 | 404 ft | 1 kts | 251° |
| 2026-05-07 01:02 | 35.88900 | -78.77852 | 404 ft | 0 kts | 251° |
| 2026-05-07 01:06 | 35.88900 | -78.77856 | 407 ft | 1 kts | 257° |
| 2026-05-07 01:07 | 35.88900 | -78.77858 | 407 ft | 0 kts | 265° |
| 2026-05-07 01:07 | 35.88908 | -78.77864 | 407 ft | 2 kts | 339° |
| 2026-05-07 01:07 | 35.88936 | -78.77858 | 407 ft | 7 kts | 30° |
| 2026-05-07 01:08 | 35.88971 | -78.77831 | 408 ft | 5 kts | 39° |
| 2026-05-07 01:08 | 35.88996 | -78.77801 | 409 ft | 5 kts | 44° |
| 2026-05-07 01:08 | 35.89012 | -78.77781 | 410 ft | 3 kts | 45° |
| 2026-05-07 01:08 | 35.89022 | -78.77768 | 409 ft | 2 kts | 46° |
| 2026-05-07 01:09 | 35.89029 | -78.77760 | 411 ft | 0 kts | 45° |
| 2026-05-07 01:09 | 35.89030 | -78.77758 | 411 ft | 0 kts | 45° |
| 2026-05-07 01:09 | 35.89031 | -78.77757 | 411 ft | 0 kts | 45° |
| 2026-05-07 01:10 | 35.89049 | -78.77735 | 410 ft | 8 kts | 45° |
| 2026-05-07 01:10 | 35.89079 | -78.77697 | 410 ft | 0 kts | 45° |
| 2026-05-07 01:10 | 35.89093 | -78.77680 | 410 ft | 7 kts | 45° |
| 2026-05-07 01:11 | 35.89109 | -78.77661 | 411 ft | 2 kts | 45° |
| 2026-05-07 01:11 | 35.89125 | -78.77640 | 412 ft | 5 kts | 45° |
| 2026-05-07 01:11 | 35.89157 | -78.77602 | 411 ft | 7 kts | 37° |
| 2026-05-07 01:11 | 35.89178 | -78.77594 | 410 ft | 0 kts | 3° |
| 2026-05-07 01:12 | 35.89184 | -78.77595 | 410 ft | 5 kts | 352° |
| 2026-05-07 01:12 | 35.89215 | -78.77623 | 412 ft | 5 kts | 316° |
| 2026-05-07 01:12 | 35.89237 | -78.77649 | 416 ft | 4 kts | 316° |
| 2026-05-07 01:13 | 35.89259 | -78.77675 | 413 ft | 4 kts | 314° |
| 2026-05-07 01:13 | 35.89279 | -78.77700 | 414 ft | 4 kts | 315° |
| 2026-05-07 01:13 | 35.89298 | -78.77723 | 417 ft | 2 kts | 315° |
| 2026-05-07 01:13 | 35.89303 | -78.77729 | 418 ft | 1 kts | 316° |
| 2026-05-07 01:14 | 35.89304 | -78.77730 | 418 ft | 0 kts | 316° |
| 2026-05-07 01:15 | 35.89308 | -78.77735 | 418 ft | 5 kts | 316° |
| 2026-05-07 01:15 | 35.89351 | -78.77786 | 408 ft | 9 kts | 312° |
| 2026-05-07 01:15 | 35.89349 | -78.77851 | 414 ft | 7 kts | 234° |
| 2026-05-07 01:15 | 35.89339 | -78.77863 | 412 ft | 0 kts | 224° |
| 2026-05-07 01:16 | 35.89335 | -78.77869 | 414 ft | 11 kts | 224° |
| 2026-05-07 01:16 | 35.89114 | -78.78141 | 408 ft | 78 kts | 225° |
| 2026-05-07 01:16 | 35.88584 | -78.78790 | 400 ft | 135 kts | 225° |
| 2026-05-07 01:16 | 35.87807 | -78.79748 | 499 ft | 172 kts | 225° |
| 2026-05-07 01:17 | 35.86950 | -78.80826 | 1076 ft | 177 kts | 226° |
| 2026-05-07 01:17 | 35.86119 | -78.81857 | 2018 ft | 159 kts | 226° |
| 2026-05-07 01:17 | 35.85314 | -78.82845 | 2583 ft | 173 kts | 225° |
| 2026-05-07 01:17 | 35.84396 | -78.83934 | 2874 ft | 193 kts | 225° |
| 2026-05-07 01:18 | 35.83380 | -78.85111 | 3126 ft | 210 kts | 231° |
| 2026-05-07 01:18 | 35.82779 | -78.86823 | 3316 ft | 234 kts | 263° |
| 2026-05-07 01:18 | 35.82825 | -78.88865 | 3957 ft | 240 kts | 271° |
| 2026-05-07 01:18 | 35.82941 | -78.90897 | 4854 ft | 235 kts | 271° |
| 2026-05-07 01:19 | 35.83041 | -78.92918 | 5570 ft | 240 kts | 271° |
| 2026-05-07 01:19 | 35.83118 | -78.95001 | 6203 ft | 246 kts | 271° |
| 2026-05-07 01:19 | 35.83170 | -78.97124 | 6855 ft | 251 kts | 270° |
| 2026-05-07 01:19 | 35.83199 | -78.99292 | 7504 ft | 254 kts | 270° |
| 2026-05-07 01:20 | 35.83246 | -79.01475 | 8208 ft | 256 kts | 270° |
| 2026-05-07 01:20 | 35.83285 | -79.03675 | 8920 ft | 258 kts | 270° |
| 2026-05-07 01:20 | 35.83322 | -79.05898 | 9604 ft | 261 kts | 270° |
| 2026-05-07 01:20 | 35.83352 | -79.08153 | 10223 ft | 265 kts | 269° |
| 2026-05-07 01:21 | 35.83362 | -79.10466 | 10663 ft | 276 kts | 269° |
| 2026-05-07 01:21 | 35.83394 | -79.12907 | 10926 ft | 293 kts | 271° |
| 2026-05-07 01:21 | 35.83449 | -79.15438 | 11342 ft | 303 kts | 270° |
| 2026-05-07 01:21 | 35.83466 | -79.18099 | 11844 ft | 310 kts | 269° |
| 2026-05-07 01:22 | 35.83479 | -79.20730 | 12432 ft | 313 kts | 270° |
| 2026-05-07 01:22 | 35.83502 | -79.23413 | 13149 ft | 312 kts | 270° |
| 2026-05-07 01:22 | 35.83523 | -79.26095 | 13799 ft | 315 kts | 270° |
| 2026-05-07 01:22 | 35.83532 | -79.28829 | 14132 ft | 325 kts | 270° |
| 2026-05-07 01:23 | 35.83531 | -79.31671 | 14407 ft | 336 kts | 267° |
| 2026-05-07 01:23 | 35.83328 | -79.34569 | 14791 ft | 342 kts | 264° |
| 2026-05-07 01:23 | 35.83057 | -79.37513 | 15087 ft | 352 kts | 264° |
| 2026-05-07 01:23 | 35.82779 | -79.40575 | 15178 ft | 366 kts | 264° |
| 2026-05-07 01:24 | 35.82512 | -79.43732 | 15309 ft | 376 kts | 265° |
| 2026-05-07 01:24 | 35.82258 | -79.46967 | 15671 ft | 380 kts | 265° |
| 2026-05-07 01:24 | 35.82010 | -79.50203 | 16157 ft | 379 kts | 265° |
| 2026-05-07 01:24 | 35.81750 | -79.53443 | 16631 ft | 380 kts | 264° |
| 2026-05-07 01:25 | 35.81271 | -79.56655 | 17064 ft | 382 kts | 260° |
| 2026-05-07 01:25 | 35.80718 | -79.59859 | 17497 ft | 383 kts | 259° |
| 2026-05-07 01:25 | 35.80158 | -79.63071 | 17910 ft | 384 kts | 260° |
| 2026-05-07 01:25 | 35.79598 | -79.66294 | 18296 ft | 386 kts | 260° |
| 2026-05-07 01:26 | 35.79038 | -79.69527 | 18622 ft | 387 kts | 260° |
| 2026-05-07 01:26 | 35.78478 | -79.72777 | 18965 ft | 389 kts | 260° |
| 2026-05-07 01:26 | 35.77916 | -79.76041 | 19311 ft | 390 kts | 260° |
| 2026-05-07 01:26 | 35.77354 | -79.79309 | 19636 ft | 391 kts | 260° |
| 2026-05-07 01:27 | 35.76789 | -79.82595 | 19934 ft | 393 kts | 260° |
| 2026-05-07 01:27 | 35.76221 | -79.85896 | 20237 ft | 395 kts | 259° |
| 2026-05-07 01:27 | 35.75650 | -79.89207 | 20554 ft | 396 kts | 259° |
| 2026-05-07 01:27 | 35.75076 | -79.92526 | 20883 ft | 397 kts | 259° |
| 2026-05-07 01:28 | 35.74500 | -79.95853 | 21160 ft | 399 kts | 259° |
| 2026-05-07 01:28 | 35.73920 | -79.99201 | 21468 ft | 400 kts | 259° |
| 2026-05-07 01:28 | 35.73338 | -80.02554 | 21749 ft | 401 kts | 260° |
| 2026-05-07 01:28 | 35.72753 | -80.05912 | 22020 ft | 402 kts | 259° |
| 2026-05-07 01:29 | 35.72174 | -80.09239 | 22303 ft | 403 kts | 259° |
| 2026-05-07 01:29 | 35.71584 | -80.12617 | 22560 ft | 404 kts | 259° |
| 2026-05-07 01:29 | 35.70992 | -80.15999 | 22833 ft | 405 kts | 259° |
| 2026-05-07 01:29 | 35.70398 | -80.19391 | 23078 ft | 406 kts | 259° |
| 2026-05-07 01:30 | 35.69800 | -80.22798 | 23327 ft | 408 kts | 259° |
| 2026-05-07 01:30 | 35.69202 | -80.26204 | 23574 ft | 409 kts | 259° |
| 2026-05-07 01:30 | 35.68599 | -80.29630 | 23768 ft | 409 kts | 259° |
| 2026-05-07 01:30 | 35.67995 | -80.33051 | 23985 ft | 410 kts | 259° |
| 2026-05-07 01:31 | 35.67389 | -80.36482 | 24189 ft | 410 kts | 259° |
| 2026-05-07 01:31 | 35.66782 | -80.39914 | 24368 ft | 412 kts | 259° |
| 2026-05-07 01:31 | 35.66172 | -80.43357 | 24538 ft | 413 kts | 260° |
| 2026-05-07 01:31 | 35.65746 | -80.46850 | 24721 ft | 412 kts | 266° |
| 2026-05-07 01:32 | 35.65649 | -80.50371 | 24909 ft | 413 kts | 271° |
| 2026-05-07 01:32 | 35.65919 | -80.53894 | 25092 ft | 414 kts | 276° |
| 2026-05-07 01:32 | 35.66267 | -80.57407 | 25256 ft | 415 kts | 276° |
| 2026-05-07 01:32 | 35.66605 | -80.60927 | 25418 ft | 416 kts | 275° |
| 2026-05-07 01:33 | 35.66937 | -80.64465 | 25582 ft | 416 kts | 275° |
| 2026-05-07 01:33 | 35.67264 | -80.67994 | 25786 ft | 415 kts | 275° |
| 2026-05-07 01:33 | 35.67586 | -80.71517 | 26027 ft | 414 kts | 275° |
| 2026-05-07 01:33 | 35.67905 | -80.75029 | 26289 ft | 412 kts | 275° |
| 2026-05-07 01:34 | 35.68222 | -80.78529 | 26524 ft | 411 kts | 275° |
| 2026-05-07 01:34 | 35.68537 | -80.82028 | 26740 ft | 411 kts | 275° |
| 2026-05-07 01:34 | 35.68851 | -80.85520 | 26971 ft | 410 kts | 275° |
| 2026-05-07 01:34 | 35.69163 | -80.89004 | 27225 ft | 409 kts | 275° |
| 2026-05-07 01:35 | 35.69473 | -80.92479 | 27479 ft | 408 kts | 275° |
| 2026-05-07 01:35 | 35.69781 | -80.95941 | 27751 ft | 407 kts | 275° |
| 2026-05-07 01:35 | 35.70087 | -80.99390 | 28002 ft | 406 kts | 275° |
| 2026-05-07 01:35 | 35.70391 | -81.02838 | 28318 ft | 404 kts | 275° |
| 2026-05-07 01:36 | 35.70689 | -81.06213 | 28655 ft | 401 kts | 275° |
| 2026-05-07 01:36 | 35.70989 | -81.09624 | 28982 ft | 400 kts | 274° |
| 2026-05-07 01:36 | 35.71286 | -81.13024 | 29235 ft | 399 kts | 274° |
| 2026-05-07 01:36 | 35.71582 | -81.16419 | 29454 ft | 400 kts | 274° |
| 2026-05-07 01:37 | 35.71878 | -81.19823 | 29687 ft | 400 kts | 274° |
| 2026-05-07 01:37 | 35.72173 | -81.23225 | 29966 ft | 398 kts | 274° |
| 2026-05-07 01:37 | 35.72465 | -81.26611 | 29963 ft | 399 kts | 274° |
| 2026-05-07 01:38 | 35.73049 | -81.33412 | 29977 ft | 399 kts | 274° |
| 2026-05-07 01:38 | 35.73628 | -81.40196 | 29988 ft | 398 kts | 274° |
| 2026-05-07 01:39 | 35.74204 | -81.46980 | 29987 ft | 398 kts | 274° |
| 2026-05-07 01:39 | 35.74774 | -81.53754 | 30041 ft | 398 kts | 274° |
| 2026-05-07 01:40 | 35.75341 | -81.60526 | 30049 ft | 398 kts | 274° |
| 2026-05-07 01:40 | 35.75904 | -81.67300 | 30046 ft | 398 kts | 274° |
| 2026-05-07 01:41 | 35.76459 | -81.74031 | 30030 ft | 397 kts | 274° |
| 2026-05-07 01:41 | 35.77017 | -81.80845 | 30018 ft | 398 kts | 274° |
| 2026-05-07 01:42 | 35.77565 | -81.87586 | 29996 ft | 398 kts | 274° |
| 2026-05-07 01:42 | 35.78113 | -81.94368 | 29980 ft | 398 kts | 274° |
| 2026-05-07 01:43 | 35.78658 | -82.01154 | 29975 ft | 398 kts | 274° |
| 2026-05-07 01:43 | 35.79198 | -82.07936 | 29954 ft | 398 kts | 273° |
| 2026-05-07 01:44 | 35.79735 | -82.14714 | 29963 ft | 397 kts | 273° |
| 2026-05-07 01:44 | 35.80266 | -82.21489 | 29969 ft | 398 kts | 273° |
| 2026-05-07 01:45 | 35.80797 | -82.28318 | 29946 ft | 402 kts | 274° |
| 2026-05-07 01:45 | 35.81327 | -82.35162 | 29967 ft | 401 kts | 273° |
| 2026-05-07 01:46 | 35.81850 | -82.41989 | 29966 ft | 400 kts | 273° |
| 2026-05-07 01:46 | 35.82370 | -82.48797 | 29958 ft | 398 kts | 272° |
| 2026-05-07 01:47 | 35.82884 | -82.55580 | 29965 ft | 397 kts | 272° |
| 2026-05-07 01:47 | 35.83392 | -82.62349 | 29965 ft | 396 kts | 272° |
| 2026-05-07 01:48 | 35.83892 | -82.69071 | 29961 ft | 396 kts | 272° |
| 2026-05-07 01:48 | 35.84393 | -82.75853 | 29966 ft | 398 kts | 272° |
| 2026-05-07 01:49 | 35.84894 | -82.82641 | 29957 ft | 398 kts | 272° |
| 2026-05-07 01:49 | 35.85388 | -82.89436 | 29959 ft | 397 kts | 272° |
| 2026-05-07 01:50 | 35.85876 | -82.96207 | 29974 ft | 396 kts | 272° |
| 2026-05-07 01:50 | 35.86360 | -83.02971 | 29975 ft | 396 kts | 272° |
| 2026-05-07 01:51 | 35.86840 | -83.09724 | 29976 ft | 394 kts | 271° |
| 2026-05-07 01:51 | 35.87314 | -83.16442 | 29973 ft | 393 kts | 271° |
| 2026-05-07 01:52 | 35.87783 | -83.23155 | 29978 ft | 393 kts | 271° |
| 2026-05-07 01:52 | 35.88170 | -83.28729 | 29967 ft | 392 kts | 271° |
| 2026-05-07 01:53 | 35.88631 | -83.35422 | 29975 ft | 392 kts | 271° |
| 2026-05-07 01:53 | 35.89091 | -83.42121 | 29973 ft | 391 kts | 271° |
| 2026-05-07 01:54 | 35.89565 | -83.48799 | 29969 ft | 391 kts | 272° |
| 2026-05-07 01:54 | 35.90247 | -83.55452 | 29978 ft | 391 kts | 273° |
| 2026-05-07 01:55 | 35.90975 | -83.62088 | 29968 ft | 390 kts | 273° |
| 2026-05-07 01:55 | 35.91681 | -83.68710 | 29975 ft | 389 kts | 272° |
| 2026-05-07 01:56 | 35.92368 | -83.75325 | 29978 ft | 388 kts | 272° |
| 2026-05-07 01:56 | 35.93045 | -83.81933 | 29980 ft | 388 kts | 272° |
| 2026-05-07 01:57 | 35.93717 | -83.88545 | 29980 ft | 388 kts | 272° |
| 2026-05-07 01:57 | 35.94384 | -83.95147 | 29977 ft | 388 kts | 272° |
| 2026-05-07 01:58 | 35.95048 | -84.01756 | 29986 ft | 388 kts | 272° |
| 2026-05-07 01:58 | 35.95708 | -84.08358 | 29980 ft | 388 kts | 272° |
| 2026-05-07 01:59 | 35.96364 | -84.14964 | 29978 ft | 387 kts | 272° |
| 2026-05-07 01:59 | 35.97012 | -84.21518 | 29982 ft | 387 kts | 272° |
| 2026-05-07 02:00 | 35.97661 | -84.28114 | 29986 ft | 387 kts | 272° |
| 2026-05-07 02:00 | 35.98304 | -84.34700 | 29989 ft | 386 kts | 272° |
| 2026-05-07 02:01 | 35.98943 | -84.41274 | 29995 ft | 385 kts | 272° |
| 2026-05-07 02:01 | 35.99577 | -84.47842 | 30004 ft | 385 kts | 272° |
| 2026-05-07 02:02 | 36.00206 | -84.54398 | 30003 ft | 384 kts | 272° |
| 2026-05-07 02:02 | 36.00832 | -84.60951 | 30005 ft | 384 kts | 272° |
| 2026-05-07 02:03 | 36.01453 | -84.67493 | 30005 ft | 383 kts | 272° |
| 2026-05-07 02:03 | 36.02070 | -84.74032 | 30002 ft | 383 kts | 272° |
| 2026-05-07 02:04 | 36.02683 | -84.80571 | 30005 ft | 383 kts | 272° |
| 2026-05-07 02:04 | 36.03293 | -84.87106 | 30010 ft | 383 kts | 272° |
| 2026-05-07 02:05 | 36.03898 | -84.93637 | 30019 ft | 383 kts | 272° |
| 2026-05-07 02:05 | 36.04499 | -85.00165 | 30022 ft | 383 kts | 272° |
| 2026-05-07 02:06 | 36.05099 | -85.06716 | 30351 ft | 382 kts | 271° |
| 2026-05-07 02:06 | 36.05396 | -85.09966 | 30649 ft | 379 kts | 271° |
| 2026-05-07 02:06 | 36.05690 | -85.13191 | 30918 ft | 377 kts | 271° |
| 2026-05-07 02:06 | 36.05981 | -85.16402 | 31163 ft | 375 kts | 271° |
| 2026-05-07 02:07 | 36.06269 | -85.19601 | 31370 ft | 375 kts | 271° |
| 2026-05-07 02:07 | 36.06844 | -85.25984 | 31846 ft | 372 kts | 271° |
| 2026-05-07 02:07 | 36.07128 | -85.29155 | 32109 ft | 371 kts | 271° |
| 2026-05-07 02:08 | 36.07400 | -85.32317 | 32346 ft | 370 kts | 270° |
| 2026-05-07 02:08 | 36.07598 | -85.35478 | 32563 ft | 368 kts | 269° |
| 2026-05-07 02:08 | 36.07752 | -85.38576 | 32843 ft | 365 kts | 268° |
| 2026-05-07 02:08 | 36.07896 | -85.41703 | 33091 ft | 363 kts | 268° |
| 2026-05-07 02:09 | 36.08040 | -85.44824 | 33295 ft | 364 kts | 268° |
| 2026-05-07 02:09 | 36.08186 | -85.47940 | 33466 ft | 364 kts | 268° |
| 2026-05-07 02:09 | 36.08337 | -85.51056 | 33697 ft | 362 kts | 268° |
| 2026-05-07 02:09 | 36.08489 | -85.54158 | 33921 ft | 361 kts | 268° |
| 2026-05-07 02:10 | 36.08642 | -85.57249 | 34127 ft | 360 kts | 268° |
| 2026-05-07 02:10 | 36.08796 | -85.60337 | 34313 ft | 359 kts | 268° |
| 2026-05-07 02:10 | 36.08948 | -85.63404 | 34509 ft | 357 kts | 268° |
| 2026-05-07 02:10 | 36.09099 | -85.66467 | 34693 ft | 356 kts | 268° |
| 2026-05-07 02:11 | 36.09249 | -85.69516 | 34890 ft | 354 kts | 268° |
| 2026-05-07 02:11 | 36.09398 | -85.72550 | 35070 ft | 353 kts | 268° |
| 2026-05-07 02:11 | 36.09546 | -85.75581 | 35172 ft | 354 kts | 268° |
| 2026-05-07 02:11 | 36.09694 | -85.78664 | 35245 ft | 355 kts | 268° |
| 2026-05-07 02:12 | 36.09841 | -85.81712 | 35354 ft | 355 kts | 268° |
| 2026-05-07 02:12 | 36.09985 | -85.84707 | 35534 ft | 353 kts | 268° |
| 2026-05-07 02:12 | 36.10129 | -85.87724 | 35726 ft | 351 kts | 268° |
| 2026-05-07 02:12 | 36.10272 | -85.90725 | 35927 ft | 348 kts | 268° |
| 2026-05-07 02:13 | 36.10551 | -85.96680 | 36017 ft | 346 kts | 268° |
| 2026-05-07 02:13 | 36.10824 | -86.02600 | 36025 ft | 344 kts | 268° |
| 2026-05-07 02:14 | 36.11098 | -86.08499 | 36034 ft | 343 kts | 268° |
| 2026-05-07 02:14 | 36.11368 | -86.14388 | 36031 ft | 343 kts | 268° |
| 2026-05-07 02:15 | 36.11633 | -86.20263 | 36033 ft | 342 kts | 268° |
| 2026-05-07 02:15 | 36.11895 | -86.26130 | 36034 ft | 341 kts | 268° |
| 2026-05-07 02:16 | 36.12153 | -86.31988 | 36044 ft | 341 kts | 268° |
| 2026-05-07 02:16 | 36.12408 | -86.37844 | 36036 ft | 342 kts | 268° |
| 2026-05-07 02:17 | 36.12662 | -86.43723 | 36044 ft | 342 kts | 268° |
| 2026-05-07 02:17 | 36.12913 | -86.49611 | 36046 ft | 343 kts | 268° |
| 2026-05-07 02:18 | 36.13161 | -86.55493 | 36057 ft | 343 kts | 268° |
| 2026-05-07 02:18 | 36.13408 | -86.61377 | 36060 ft | 342 kts | 268° |
| 2026-05-07 02:19 | 36.13650 | -86.67251 | 36052 ft | 342 kts | 268° |
| 2026-05-07 02:19 | 36.13725 | -86.73108 | 36052 ft | 340 kts | 265° |
| 2026-05-07 02:20 | 36.13674 | -86.78908 | 36050 ft | 339 kts | 265° |
| 2026-05-07 02:20 | 36.13621 | -86.84741 | 36035 ft | 339 kts | 265° |
| 2026-05-07 02:21 | 36.13576 | -86.90567 | 36018 ft | 338 kts | 265° |
| 2026-05-07 02:21 | 36.13533 | -86.96386 | 36019 ft | 338 kts | 265° |
| 2026-05-07 02:22 | 36.13489 | -87.02191 | 36025 ft | 337 kts | 265° |
| 2026-05-07 02:22 | 36.13443 | -87.08002 | 36028 ft | 338 kts | 265° |
| 2026-05-07 02:23 | 36.13395 | -87.13818 | 36042 ft | 338 kts | 265° |
| 2026-05-07 02:23 | 36.13343 | -87.19639 | 36037 ft | 338 kts | 265° |
| 2026-05-07 02:24 | 36.13289 | -87.25456 | 36048 ft | 338 kts | 265° |
| 2026-05-07 02:24 | 36.13232 | -87.31280 | 36040 ft | 339 kts | 265° |
| 2026-05-07 02:25 | 36.13171 | -87.37106 | 36048 ft | 339 kts | 265° |
| 2026-05-07 02:25 | 36.13109 | -87.42931 | 36047 ft | 338 kts | 265° |
| 2026-05-07 02:26 | 36.13044 | -87.48755 | 36054 ft | 338 kts | 265° |
| 2026-05-07 02:26 | 36.12976 | -87.54538 | 36057 ft | 338 kts | 265° |
| 2026-05-07 02:27 | 36.12905 | -87.60349 | 36060 ft | 338 kts | 265° |
| 2026-05-07 02:27 | 36.12831 | -87.66164 | 36059 ft | 338 kts | 264° |
| 2026-05-07 02:28 | 36.12755 | -87.71974 | 36056 ft | 338 kts | 265° |
| 2026-05-07 02:28 | 36.12675 | -87.77784 | 36064 ft | 338 kts | 264° |
| 2026-05-07 02:29 | 36.12594 | -87.83599 | 36060 ft | 338 kts | 264° |
| 2026-05-07 02:29 | 36.12509 | -87.89408 | 36070 ft | 338 kts | 264° |
| 2026-05-07 02:30 | 36.12540 | -87.95228 | 36061 ft | 339 kts | 266° |
| 2026-05-07 02:30 | 36.12664 | -88.01054 | 36064 ft | 339 kts | 266° |
| 2026-05-07 02:31 | 36.12780 | -88.06879 | 36064 ft | 339 kts | 266° |
| 2026-05-07 02:31 | 36.12885 | -88.12703 | 36060 ft | 338 kts | 266° |
| 2026-05-07 02:32 | 36.12981 | -88.18481 | 36053 ft | 338 kts | 266° |
| 2026-05-07 02:32 | 36.13073 | -88.24302 | 36048 ft | 338 kts | 266° |
| 2026-05-07 02:33 | 36.13161 | -88.30113 | 36043 ft | 338 kts | 266° |
| 2026-05-07 02:33 | 36.13246 | -88.35928 | 36042 ft | 338 kts | 266° |
| 2026-05-07 02:34 | 36.13327 | -88.41738 | 36034 ft | 338 kts | 266° |
| 2026-05-07 02:34 | 36.13406 | -88.47544 | 36037 ft | 338 kts | 266° |
| 2026-05-07 02:35 | 36.13483 | -88.53357 | 36038 ft | 338 kts | 266° |
| 2026-05-07 02:35 | 36.13556 | -88.59173 | 36044 ft | 338 kts | 266° |
| 2026-05-07 02:36 | 36.13627 | -88.64989 | 36045 ft | 338 kts | 266° |
| 2026-05-07 02:36 | 36.13695 | -88.70803 | 36048 ft | 338 kts | 266° |
| 2026-05-07 02:37 | 36.13760 | -88.76614 | 36056 ft | 338 kts | 266° |
| 2026-05-07 02:37 | 36.13823 | -88.82432 | 36060 ft | 338 kts | 266° |
| 2026-05-07 02:38 | 36.13882 | -88.88248 | 36056 ft | 338 kts | 266° |
| 2026-05-07 02:38 | 36.13939 | -88.94033 | 36063 ft | 338 kts | 266° |
| 2026-05-07 02:39 | 36.13993 | -88.99854 | 36059 ft | 339 kts | 265° |
| 2026-05-07 02:39 | 36.14044 | -89.05676 | 36064 ft | 339 kts | 265° |
| 2026-05-07 02:40 | 36.14085 | -89.10557 | 36063 ft | 339 kts | 265° |
| 2026-05-07 02:40 | 36.14130 | -89.16349 | 36065 ft | 339 kts | 265° |
| 2026-05-07 02:41 | 36.14174 | -89.22178 | 36067 ft | 339 kts | 265° |
| 2026-05-07 02:41 | 36.14214 | -89.28007 | 36069 ft | 339 kts | 265° |
| 2026-05-07 02:42 | 36.14252 | -89.33839 | 36073 ft | 339 kts | 265° |
| 2026-05-07 02:42 | 36.14287 | -89.39666 | 36072 ft | 339 kts | 265° |
| 2026-05-07 02:43 | 36.14318 | -89.45492 | 36068 ft | 339 kts | 265° |
| 2026-05-07 02:43 | 36.14348 | -89.51327 | 36076 ft | 339 kts | 265° |
| 2026-05-07 02:44 | 36.14374 | -89.57149 | 36072 ft | 339 kts | 265° |
| 2026-05-07 02:44 | 36.14397 | -89.62979 | 36069 ft | 339 kts | 265° |
| 2026-05-07 02:45 | 36.14418 | -89.68800 | 36066 ft | 339 kts | 265° |
| 2026-05-07 02:45 | 36.14436 | -89.74588 | 36065 ft | 338 kts | 265° |
| 2026-05-07 02:46 | 36.14451 | -89.80414 | 36068 ft | 338 kts | 265° |
| 2026-05-07 02:46 | 36.14463 | -89.86235 | 36068 ft | 338 kts | 265° |
| 2026-05-07 02:47 | 36.14472 | -89.92059 | 36066 ft | 338 kts | 265° |
| 2026-05-07 02:47 | 36.14479 | -89.97875 | 36064 ft | 338 kts | 265° |
| 2026-05-07 02:48 | 36.14483 | -90.03690 | 36068 ft | 338 kts | 265° |
| 2026-05-07 02:48 | 36.14484 | -90.09501 | 36065 ft | 338 kts | 265° |
| 2026-05-07 02:49 | 36.14482 | -90.15312 | 36066 ft | 337 kts | 265° |
| 2026-05-07 02:49 | 36.14477 | -90.21112 | 36068 ft | 337 kts | 265° |
| 2026-05-07 02:50 | 36.14470 | -90.26910 | 36070 ft | 337 kts | 265° |
| 2026-05-07 02:50 | 36.14460 | -90.32700 | 36066 ft | 336 kts | 265° |
| 2026-05-07 02:51 | 36.14447 | -90.38482 | 36071 ft | 336 kts | 264° |
| 2026-05-07 02:51 | 36.14431 | -90.44252 | 36075 ft | 335 kts | 264° |
| 2026-05-07 02:52 | 36.14412 | -90.50020 | 36072 ft | 335 kts | 264° |
| 2026-05-07 02:52 | 36.14390 | -90.55772 | 36143 ft | 333 kts | 265° |
| 2026-05-07 02:53 | 36.14375 | -90.61525 | 36086 ft | 335 kts | 264° |
| 2026-05-07 02:53 | 36.14343 | -90.67308 | 36076 ft | 336 kts | 264° |
| 2026-05-07 02:54 | 36.14311 | -90.73088 | 36077 ft | 336 kts | 264° |
| 2026-05-07 02:54 | 36.14279 | -90.78861 | 36072 ft | 335 kts | 264° |
| 2026-05-07 02:55 | 36.14244 | -90.84627 | 36074 ft | 335 kts | 264° |
| 2026-05-07 02:55 | 36.14207 | -90.90378 | 36074 ft | 334 kts | 264° |
| 2026-05-07 02:56 | 36.14287 | -90.96127 | 36076 ft | 335 kts | 266° |
| 2026-05-07 02:56 | 36.14488 | -91.01877 | 36074 ft | 334 kts | 266° |
| 2026-05-07 02:57 | 36.14683 | -91.07617 | 36075 ft | 334 kts | 266° |
| 2026-05-07 02:57 | 36.14864 | -91.13346 | 36079 ft | 333 kts | 266° |
| 2026-05-07 02:58 | 36.15035 | -91.19030 | 36079 ft | 333 kts | 266° |
| 2026-05-07 02:58 | 36.15201 | -91.24751 | 36080 ft | 332 kts | 266° |
| 2026-05-07 02:59 | 36.15364 | -91.30465 | 36086 ft | 332 kts | 266° |
| 2026-05-07 02:59 | 36.15523 | -91.36177 | 36082 ft | 332 kts | 266° |
| 2026-05-07 03:00 | 36.15679 | -91.41891 | 36080 ft | 332 kts | 266° |
| 2026-05-07 03:00 | 36.15833 | -91.47593 | 36081 ft | 331 kts | 266° |
| 2026-05-07 03:01 | 36.15984 | -91.53291 | 36076 ft | 331 kts | 266° |
| 2026-05-07 03:01 | 36.16132 | -91.58978 | 36091 ft | 330 kts | 266° |
| 2026-05-07 03:02 | 36.16276 | -91.64664 | 36085 ft | 331 kts | 266° |
| 2026-05-07 03:02 | 36.16418 | -91.70363 | 36084 ft | 332 kts | 266° |
| 2026-05-07 03:03 | 36.16558 | -91.76068 | 36075 ft | 332 kts | 266° |
| 2026-05-07 03:03 | 36.16696 | -91.81779 | 36076 ft | 332 kts | 266° |
| 2026-05-07 03:04 | 36.16831 | -91.87483 | 36083 ft | 332 kts | 266° |
| 2026-05-07 03:04 | 36.16963 | -91.93189 | 36086 ft | 332 kts | 265° |
| 2026-05-07 03:05 | 36.17092 | -91.98896 | 36084 ft | 332 kts | 265° |
| 2026-05-07 03:05 | 36.17218 | -92.04567 | 36085 ft | 332 kts | 265° |
| 2026-05-07 03:06 | 36.17342 | -92.10280 | 36089 ft | 332 kts | 265° |
| 2026-05-07 03:06 | 36.17463 | -92.15982 | 36102 ft | 331 kts | 265° |
| 2026-05-07 03:07 | 36.17581 | -92.21688 | 36092 ft | 331 kts | 265° |
| 2026-05-07 03:07 | 36.17697 | -92.27392 | 36096 ft | 332 kts | 265° |
| 2026-05-07 03:08 | 36.17809 | -92.33103 | 36099 ft | 332 kts | 265° |
| 2026-05-07 03:08 | 36.17920 | -92.38814 | 36115 ft | 332 kts | 265° |
| 2026-05-07 03:09 | 36.18028 | -92.44524 | 36101 ft | 332 kts | 265° |
| 2026-05-07 03:09 | 36.18132 | -92.50241 | 36111 ft | 332 kts | 265° |
| 2026-05-07 03:10 | 36.18234 | -92.55970 | 36104 ft | 333 kts | 265° |
| 2026-05-07 03:10 | 36.18335 | -92.61705 | 36112 ft | 333 kts | 265° |
| 2026-05-07 03:11 | 36.18432 | -92.67425 | 36096 ft | 332 kts | 265° |
| 2026-05-07 03:11 | 36.18526 | -92.73141 | 36105 ft | 332 kts | 265° |
| 2026-05-07 03:12 | 36.18617 | -92.78852 | 36109 ft | 332 kts | 265° |
| 2026-05-07 03:12 | 36.18706 | -92.84573 | 36103 ft | 332 kts | 265° |
| 2026-05-07 03:13 | 36.18792 | -92.90284 | 36109 ft | 332 kts | 265° |
| 2026-05-07 03:13 | 36.18875 | -92.96008 | 36103 ft | 332 kts | 265° |
| 2026-05-07 03:14 | 36.18955 | -93.01685 | 36116 ft | 332 kts | 265° |
| 2026-05-07 03:15 | 36.19071 | -93.10260 | 36111 ft | 332 kts | 265° |
| 2026-05-07 03:15 | 36.19144 | -93.15982 | 36113 ft | 332 kts | 265° |
| 2026-05-07 03:16 | 36.19215 | -93.21703 | 36121 ft | 333 kts | 265° |
| 2026-05-07 03:16 | 36.19283 | -93.27443 | 36110 ft | 334 kts | 265° |
| 2026-05-07 03:17 | 36.19349 | -93.33193 | 36112 ft | 333 kts | 264° |
| 2026-05-07 03:17 | 36.19413 | -93.38927 | 36109 ft | 333 kts | 264° |
| 2026-05-07 03:18 | 36.19474 | -93.44657 | 36104 ft | 333 kts | 264° |
| 2026-05-07 03:18 | 36.19531 | -93.50385 | 36100 ft | 332 kts | 264° |
| 2026-05-07 03:19 | 36.19586 | -93.56106 | 36108 ft | 332 kts | 264° |
| 2026-05-07 03:19 | 36.19638 | -93.61823 | 36105 ft | 332 kts | 264° |
| 2026-05-07 03:20 | 36.19687 | -93.67535 | 36103 ft | 332 kts | 264° |